| time (UTC) | temp F | wind direction | speed MPH | gust MPH | rain 1hr in | rain 24hr in | rain mn in | humidity % | barometer mb |
| 20260505151520 | 71 | 354 | 0.0 | 10.0 | 0.00 | 0.00 | 0.00 | 56 | 1001.8 |
| 20260505124553 | 62 | 141 | 1.0 | 8.0 | 0.00 | 0.06 | 0.00 | 59 | 1003.2 |
| 20260505123108 | 62 | 143 | 0.0 | 12.0 | 0.00 | 0.06 | 0.00 | 61 | 1003.3 |
| 20260505121547 | 61 | 316 | 0.0 | 5.0 | 0.00 | 0.06 | 0.00 | 59 | 1003.2 |
| 20260505120047 | 60 | 304 | 0.0 | 4.0 | 0.00 | 0.06 | 0.00 | 61 | 1003.1 |
| 20260505114606 | 60 | 298 | 0.0 | 6.0 | 0.00 | 0.06 | 0.00 | 61 | 1003.1 |
| 20260505113044 | 60 | 322 | 0.0 | 9.0 | 0.00 | 0.06 | 0.00 | 60 | 1003.2 |
| 20260505111556 | 60 | 177 | 1.0 | 14.0 | 0.00 | 0.06 | 0.00 | 59 | 1003.2 |
| 20260505101536 | 58 | 166 | 0.0 | 1.0 | 0.00 | 0.06 | 0.00 | 63 | 1002.6 |
| 20260505100036 | 59 | 170 | 0.0 | 6.0 | 0.00 | 0.06 | 0.00 | 60 | 1002.8 |
| 20260505094536 | 58 | 337 | 0.0 | 8.0 | 0.00 | 0.06 | 0.00 | 62 | 1003.0 |
| 20260505093036 | 58 | 194 | 0.0 | 5.0 | 0.00 | 0.06 | 0.00 | 63 | 1003.0 |
| 20260505091535 | 58 | 168 | 0.0 | 2.0 | 0.00 | 0.06 | 0.00 | 62 | 1002.9 |
| 20260505090034 | 58 | 160 | 0.0 | 0.0 | 0.00 | 0.06 | 0.00 | 62 | 1003.0 |
| 20260505084530 | 58 | 231 | 0.0 | 5.0 | 0.00 | 0.06 | 0.00 | 60 | 1003.2 |
| 20260505083035 | 58 | 155 | 0.0 | 3.0 | 0.00 | 0.06 | 0.00 | 61 | 1003.1 |
| 20260505081533 | 59 | 347 | 0.0 | 4.0 | 0.00 | 0.06 | 0.00 | 59 | 1003.1 |
| 20260505080035 | 59 | 156 | 0.0 | 3.0 | 0.00 | 0.06 | 0.00 | 59 | 1003.1 |
| 20260505074525 | 58 | 311 | 0.0 | 3.0 | 0.00 | 0.06 | 0.00 | 59 | 1003.0 |
| 20260505073024 | 58 | 316 | 0.0 | 1.0 | 0.00 | 0.06 | 0.00 | 60 | 1002.9 |
| 20260505071523 | 58 | 156 | 0.0 | 4.0 | 0.00 | 0.06 | 0.00 | 60 | 1003.0 |
| 20260505070023 | 58 | 325 | 0.0 | 1.0 | 0.00 | 0.06 | 0.00 | 60 | 1003.1 |
| 20260505064523 | 58 | 159 | 0.0 | 0.0 | 0.00 | 0.06 | 0.00 | 59 | 1003.2 |
| 20260505063021 | 58 | 326 | 0.0 | 2.0 | 0.00 | 0.06 | 0.00 | 59 | 1003.1 |
| 20260505061530 | 58 | 172 | 0.0 | 3.0 | 0.00 | 0.06 | 0.00 | 58 | 1002.9 |
| 20260505060018 | 58 | 169 | 0.0 | 0.0 | 0.00 | 0.06 | 0.00 | 60 | 1003.0 |
| 20260505054514 | 57 | 165 | 0.0 | 3.0 | 0.00 | 0.06 | 0.00 | 60 | 1003.2 |
| 20260505053015 | 58 | 354 | 0.0 | 1.0 | 0.00 | 0.06 | 0.00 | 60 | 1003.3 |
| 20260505051513 | 57 | 332 | 0.0 | 0.0 | 0.00 | 0.06 | 0.00 | 62 | 1003.4 |
| 20260505041503 | 56 | 61 | 0.0 | 0.0 | 0.00 | 0.06 | 0.00 | 64 | 1003.6 |
| 20260505040104 | 55 | 155 | 0.0 | 0.0 | 0.00 | 0.06 | 0.06 | 67 | 1003.6 |
| 20260505034501 | 56 | 148 | 0.0 | 0.0 | 0.00 | 0.06 | 0.06 | 66 | 1003.5 |
| 20260505033100 | 55 | 159 | 0.0 | 0.0 | 0.00 | 0.06 | 0.06 | 67 | 1003.6 |
| 20260505031608 | 55 | 148 | 0.0 | 0.0 | 0.00 | 0.06 | 0.06 | 67 | 1003.7 |
| 20260505030059 | 55 | 148 | 0.0 | 0.0 | 0.00 | 0.06 | 0.06 | 68 | 1003.8 |
| 20260505024559 | 54 | 199 | 0.0 | 0.0 | 0.00 | 0.06 | 0.06 | 69 | 1003.9 |
| 20260505023103 | 53 | 161 | 0.0 | 0.0 | 0.00 | 0.06 | 0.06 | 76 | 1003.9 |
| 20260505021558 | 53 | 153 | 0.0 | 0.0 | 0.00 | 0.06 | 0.06 | 76 | 1004.0 |
| 20260505020057 | 53 | 157 | 0.0 | 0.0 | 0.00 | 0.06 | 0.06 | 74 | 1004.1 |
| 20260505014556 | 54 | 156 | 0.0 | 0.0 | 0.00 | 0.06 | 0.06 | 71 | 1004.0 |
| 20260505013059 | 54 | 157 | 0.0 | 0.0 | 0.00 | 0.06 | 0.06 | 70 | 1004.1 |
| 20260505011557 | 55 | 157 | 0.0 | 0.0 | 0.00 | 0.06 | 0.06 | 71 | 1004.0 |
| 20260505010054 | 56 | 184 | 0.0 | 0.0 | 0.00 | 0.06 | 0.06 | 66 | 1004.0 |
| 20260505004653 | 57 | 184 | 0.0 | 0.0 | 0.00 | 0.06 | 0.06 | 64 | 1004.1 |
| 20260505003056 | 58 | 184 | 0.0 | 0.0 | 0.00 | 0.06 | 0.06 | 65 | 1003.9 |
| 20260505001555 | 60 | 148 | 0.0 | 0.0 | 0.00 | 0.06 | 0.06 | 59 | 1003.7 |
| 20260505000055 | 61 | 148 | 0.0 | 0.0 | 0.00 | 0.06 | 0.06 | 54 | 1003.6 |
| 20260504234602 | 62 | 165 | 0.0 | 0.0 | 0.00 | 0.06 | 0.06 | 54 | 1003.5 |
| 20260504233049 | 63 | 153 | 0.0 | 0.0 | 0.00 | 0.06 | 0.06 | 53 | 1003.3 |
| 20260504231559 | 63 | 156 | 0.0 | 0.0 | 0.00 | 0.06 | 0.06 | 55 | 1003.0 |
| 20260504230048 | 64 | 158 | 0.0 | 0.0 | 0.00 | 0.06 | 0.06 | 55 | 1002.9 |
| 20260504224548 | 65 | 177 | 0.0 | 0.0 | 0.00 | 0.06 | 0.06 | 53 | 1002.8 |
| 20260504223046 | 65 | 173 | 0.0 | 3.0 | 0.00 | 0.06 | 0.06 | 51 | 1002.6 |
| 20260504221647 | 65 | 162 | 0.0 | 0.0 | 0.00 | 0.06 | 0.06 | 52 | 1002.7 |
| 20260504220044 | 66 | 32 | 0.0 | 0.0 | 0.00 | 0.06 | 0.06 | 51 | 1002.6 |
| 20260504214544 | 65 | 162 | 0.0 | 0.0 | 0.00 | 0.06 | 0.06 | 52 | 1002.7 |
| 20260504213042 | 65 | 160 | 0.0 | 0.0 | 0.00 | 0.06 | 0.06 | 55 | 1002.7 |
| 20260504211549 | 65 | 155 | 0.0 | 0.0 | 0.00 | 0.06 | 0.06 | 53 | 1002.7 |
| 20260504210100 | 65 | 347 | 0.0 | 2.0 | 0.00 | 0.06 | 0.06 | 52 | 1002.6 |
| 20260504204548 | 65 | 174 | 0.0 | 5.0 | 0.00 | 0.06 | 0.06 | 53 | 1002.7 |
| 20260504203044 | 66 | 179 | 0.0 | 5.0 | 0.00 | 0.06 | 0.06 | 49 | 1002.7 |
| 20260504201534 | 65 | 253 | 0.0 | 3.0 | 0.00 | 0.06 | 0.06 | 51 | 1003.0 |
| 20260504200032 | 67 | 29 | 0.0 | 2.0 | 0.00 | 0.06 | 0.06 | 48 | 1003.3 |
| 20260504194543 | 66 | 154 | 0.0 | 2.0 | 0.00 | 0.06 | 0.06 | 54 | 1003.4 |
| 20260504193029 | 66 | 166 | 0.0 | 8.0 | 0.00 | 0.06 | 0.06 | 53 | 1003.7 |
| 20260504191529 | 66 | 331 | 0.0 | 0.0 | 0.00 | 0.06 | 0.06 | 52 | 1003.9 |
| 20260504190021 | 64 | 181 | 0.0 | 2.0 | 0.00 | 0.06 | 0.06 | 53 | 1004.2 |
| 20260504184517 | 63 | 164 | 0.0 | 6.0 | 0.00 | 0.06 | 0.06 | 55 | 1004.5 |
| 20260504183014 | 63 | 22 | 1.0 | 8.0 | 0.00 | 0.06 | 0.06 | 55 | 1004.7 |
| 20260504181510 | 62 | 168 | 0.0 | 3.0 | 0.00 | 0.06 | 0.06 | 58 | 1004.9 |
| 20260504180013 | 62 | 333 | 0.0 | 6.0 | 0.00 | 0.06 | 0.06 | 60 | 1005.1 |
| 20260504174505 | 59 | 153 | 0.0 | 4.0 | 0.00 | 0.06 | 0.06 | 59 | 1005.3 |
| 20260504173006 | 57 | 20 | 0.0 | 2.0 | 0.00 | 0.06 | 0.06 | 63 | 1005.8 |
| 20260504171501 | 57 | 160 | 0.0 | 6.0 | 0.00 | 0.06 | 0.06 | 64 | 1005.8 |